sensor_id;sensor_type;location;lat;lon;timestamp;P1;durP1;ratioP1;P2;durP2;ratioP2
39324;SDS011;25037;49.488;9.900;2023-06-14T00:00:41;9.13;;;4.80;;
39324;SDS011;25037;49.488;9.900;2023-06-14T00:03:08;9.48;;;4.82;;
39324;SDS011;25037;49.488;9.900;2023-06-14T00:05:36;7.18;;;4.20;;
39324;SDS011;25037;49.488;9.900;2023-06-14T00:08:07;7.70;;;4.65;;
39324;SDS011;25037;49.488;9.900;2023-06-14T00:10:34;7.70;;;4.75;;
39324;SDS011;25037;49.488;9.900;2023-06-14T00:13:02;8.80;;;4.55;;
39324;SDS011;25037;49.488;9.900;2023-06-14T00:15:30;9.82;;;4.80;;
39324;SDS011;25037;49.488;9.900;2023-06-14T00:17:57;7.88;;;5.10;;
39324;SDS011;25037;49.488;9.900;2023-06-14T00:20:27;7.78;;;4.63;;
39324;SDS011;25037;49.488;9.900;2023-06-14T00:22:54;8.02;;;5.20;;
39324;SDS011;25037;49.488;9.900;2023-06-14T00:25:25;8.25;;;5.28;;
39324;SDS011;25037;49.488;9.900;2023-06-14T00:27:55;9.05;;;4.97;;
39324;SDS011;25037;49.488;9.900;2023-06-14T00:30:23;8.43;;;5.10;;
39324;SDS011;25037;49.488;9.900;2023-06-14T00:32:50;8.38;;;5.05;;
39324;SDS011;25037;49.488;9.900;2023-06-14T00:35:18;7.35;;;5.03;;
39324;SDS011;25037;49.488;9.900;2023-06-14T00:37:44;7.68;;;5.05;;
39324;SDS011;25037;49.488;9.900;2023-06-14T00:42:38;8.32;;;4.65;;
39324;SDS011;25037;49.488;9.900;2023-06-14T00:47:32;7.15;;;4.25;;
39324;SDS011;25037;49.488;9.900;2023-06-14T00:49:59;11.27;;;5.28;;
39324;SDS011;25037;49.488;9.900;2023-06-14T00:52:26;6.85;;;4.95;;
39324;SDS011;25037;49.488;9.900;2023-06-14T00:54:53;7.15;;;5.13;;
39324;SDS011;25037;49.488;9.900;2023-06-14T00:59:47;6.93;;;4.72;;
39324;SDS011;25037;49.488;9.900;2023-06-14T01:02:15;9.30;;;4.93;;
39324;SDS011;25037;49.488;9.900;2023-06-14T01:04:43;6.70;;;4.57;;
39324;SDS011;25037;49.488;9.900;2023-06-14T01:12:59;8.23;;;5.20;;
39324;SDS011;25037;49.488;9.900;2023-06-14T01:15:37;8.05;;;4.65;;
39324;SDS011;25037;49.488;9.900;2023-06-14T01:18:05;9.30;;;5.50;;
39324;SDS011;25037;49.488;9.900;2023-06-14T01:20:32;8.48;;;4.97;;
39324;SDS011;25037;49.488;9.900;2023-06-14T01:23:03;7.13;;;4.55;;
39324;SDS011;25037;49.488;9.900;2023-06-14T01:25:30;8.20;;;4.82;;
39324;SDS011;25037;49.488;9.900;2023-06-14T01:27:58;6.80;;;5.15;;
39324;SDS011;25037;49.488;9.900;2023-06-14T01:30:26;9.90;;;5.40;;
39324;SDS011;25037;49.488;9.900;2023-06-14T01:32:54;7.00;;;4.30;;
39324;SDS011;25037;49.488;9.900;2023-06-14T01:35:22;7.70;;;4.65;;
39324;SDS011;25037;49.488;9.900;2023-06-14T01:37:49;10.07;;;5.07;;
39324;SDS011;25037;49.488;9.900;2023-06-14T01:40:18;9.55;;;5.22;;
39324;SDS011;25037;49.488;9.900;2023-06-14T01:42:47;8.20;;;5.10;;
39324;SDS011;25037;49.488;9.900;2023-06-14T01:45:16;8.73;;;5.38;;
39324;SDS011;25037;49.488;9.900;2023-06-14T01:47:44;7.95;;;5.28;;
39324;SDS011;25037;49.488;9.900;2023-06-14T01:50:12;7.25;;;4.82;;
39324;SDS011;25037;49.488;9.900;2023-06-14T01:52:39;7.25;;;4.80;;
39324;SDS011;25037;49.488;9.900;2023-06-14T01:55:06;9.40;;;5.43;;
39324;SDS011;25037;49.488;9.900;2023-06-14T01:57:34;8.20;;;4.65;;
39324;SDS011;25037;49.488;9.900;2023-06-14T02:02:27;7.05;;;4.30;;
39324;SDS011;25037;49.488;9.900;2023-06-14T02:07:23;7.05;;;4.45;;
39324;SDS011;25037;49.488;9.900;2023-06-14T02:09:50;7.80;;;5.78;;
39324;SDS011;25037;49.488;9.900;2023-06-14T02:14:44;9.13;;;5.20;;
39324;SDS011;25037;49.488;9.900;2023-06-14T02:19:37;8.50;;;5.35;;
39324;SDS011;25037;49.488;9.900;2023-06-14T02:22:04;8.40;;;5.35;;
39324;SDS011;25037;49.488;9.900;2023-06-14T02:24:31;7.80;;;4.50;;
39324;SDS011;25037;49.488;9.900;2023-06-14T02:26:58;7.90;;;5.03;;
39324;SDS011;25037;49.488;9.900;2023-06-14T02:29:24;8.13;;;5.18;;
39324;SDS011;25037;49.488;9.900;2023-06-14T02:34:18;7.80;;;4.70;;
39324;SDS011;25037;49.488;9.900;2023-06-14T02:36:46;11.68;;;5.80;;
39324;SDS011;25037;49.488;9.900;2023-06-14T02:39:14;8.73;;;5.40;;
39324;SDS011;25037;49.488;9.900;2023-06-14T02:41:40;8.43;;;5.13;;
39324;SDS011;25037;49.488;9.900;2023-06-14T02:44:07;7.30;;;5.57;;
39324;SDS011;25037;49.488;9.900;2023-06-14T02:46:34;9.52;;;5.70;;
39324;SDS011;25037;49.488;9.900;2023-06-14T02:49:01;10.18;;;5.60;;
39324;SDS011;25037;49.488;9.900;2023-06-14T02:51:28;8.05;;;5.70;;
39324;SDS011;25037;49.488;9.900;2023-06-14T02:53:55;8.27;;;5.18;;
39324;SDS011;25037;49.488;9.900;2023-06-14T02:56:21;8.02;;;5.30;;
39324;SDS011;25037;49.488;9.900;2023-06-14T02:58:48;9.32;;;5.82;;
39324;SDS011;25037;49.488;9.900;2023-06-14T03:03:43;10.52;;;5.72;;
39324;SDS011;25037;49.488;9.900;2023-06-14T03:08:39;7.93;;;5.40;;
39324;SDS011;25037;49.488;9.900;2023-06-14T03:11:07;10.02;;;5.88;;
39324;SDS011;25037;49.488;9.900;2023-06-14T03:13:35;8.70;;;6.05;;
39324;SDS011;25037;49.488;9.900;2023-06-14T03:16:01;9.43;;;5.30;;
39324;SDS011;25037;49.488;9.900;2023-06-14T03:18:31;11.07;;;5.47;;
39324;SDS011;25037;49.488;9.900;2023-06-14T03:21:01;9.48;;;5.68;;
39324;SDS011;25037;49.488;9.900;2023-06-14T03:23:29;8.55;;;5.05;;
39324;SDS011;25037;49.488;9.900;2023-06-14T03:28:22;11.05;;;6.40;;
39324;SDS011;25037;49.488;9.900;2023-06-14T03:30:49;9.07;;;6.30;;
39324;SDS011;25037;49.488;9.900;2023-06-14T03:35:43;10.20;;;5.28;;
39324;SDS011;25037;49.488;9.900;2023-06-14T03:40:36;7.22;;;4.90;;
39324;SDS011;25037;49.488;9.900;2023-06-14T03:43:03;9.25;;;5.25;;
39324;SDS011;25037;49.488;9.900;2023-06-14T03:45:30;11.85;;;5.97;;
39324;SDS011;25037;49.488;9.900;2023-06-14T03:47:56;9.88;;;5.72;;
39324;SDS011;25037;49.488;9.900;2023-06-14T03:50:24;7.93;;;4.85;;
39324;SDS011;25037;49.488;9.900;2023-06-14T03:52:53;7.72;;;5.65;;
39324;SDS011;25037;49.488;9.900;2023-06-14T03:55:20;10.13;;;6.25;;
39324;SDS011;25037;49.488;9.900;2023-06-14T03:58:06;7.28;;;5.63;;
39324;SDS011;25037;49.488;9.900;2023-06-14T04:00:33;9.88;;;5.97;;
39324;SDS011;25037;49.488;9.900;2023-06-14T04:03:00;9.38;;;5.72;;
39324;SDS011;25037;49.488;9.900;2023-06-14T04:05:27;9.27;;;5.95;;
39324;SDS011;25037;49.488;9.900;2023-06-14T04:07:54;8.52;;;5.82;;
39324;SDS011;25037;49.488;9.900;2023-06-14T04:10:22;9.52;;;5.60;;
39324;SDS011;25037;49.488;9.900;2023-06-14T04:15:15;9.05;;;6.45;;
39324;SDS011;25037;49.488;9.900;2023-06-14T04:17:47;7.30;;;5.07;;
39324;SDS011;25037;49.488;9.900;2023-06-14T04:20:14;10.05;;;5.68;;
39324;SDS011;25037;49.488;9.900;2023-06-14T04:22:40;10.40;;;6.50;;
39324;SDS011;25037;49.488;9.900;2023-06-14T04:25:09;12.75;;;6.28;;
39324;SDS011;25037;49.488;9.900;2023-06-14T04:27:37;10.20;;;6.82;;
39324;SDS011;25037;49.488;9.900;2023-06-14T04:30:04;12.27;;;6.38;;
39324;SDS011;25037;49.488;9.900;2023-06-14T04:32:31;10.30;;;6.90;;
39324;SDS011;25037;49.488;9.900;2023-06-14T04:35:06;11.98;;;6.30;;
39324;SDS011;25037;49.488;9.900;2023-06-14T04:37:33;9.38;;;5.53;;
39324;SDS011;25037;49.488;9.900;2023-06-14T04:40:00;8.77;;;6.30;;
39324;SDS011;25037;49.488;9.900;2023-06-14T04:42:30;9.00;;;5.63;;
39324;SDS011;25037;49.488;9.900;2023-06-14T04:44:57;6.72;;;5.43;;
39324;SDS011;25037;49.488;9.900;2023-06-14T04:47:24;7.00;;;5.50;;
39324;SDS011;25037;49.488;9.900;2023-06-14T04:49:56;7.88;;;6.00;;
39324;SDS011;25037;49.488;9.900;2023-06-14T04:52:24;8.88;;;5.93;;
39324;SDS011;25037;49.488;9.900;2023-06-14T04:54:52;7.80;;;6.63;;
39324;SDS011;25037;49.488;9.900;2023-06-14T04:57:20;7.68;;;6.70;;
39324;SDS011;25037;49.488;9.900;2023-06-14T04:59:48;8.30;;;5.65;;
39324;SDS011;25037;49.488;9.900;2023-06-14T05:02:17;9.90;;;6.20;;
39324;SDS011;25037;49.488;9.900;2023-06-14T05:04:44;8.93;;;5.57;;
39324;SDS011;25037;49.488;9.900;2023-06-14T05:07:13;9.40;;;6.65;;
39324;SDS011;25037;49.488;9.900;2023-06-14T05:09:41;6.80;;;6.10;;
39324;SDS011;25037;49.488;9.900;2023-06-14T05:12:07;6.85;;;5.85;;
39324;SDS011;25037;49.488;9.900;2023-06-14T05:14:34;10.57;;;7.63;;
39324;SDS011;25037;49.488;9.900;2023-06-14T05:17:01;9.35;;;8.35;;
39324;SDS011;25037;49.488;9.900;2023-06-14T05:19:28;10.68;;;9.30;;
39324;SDS011;25037;49.488;9.900;2023-06-14T05:21:55;10.98;;;9.27;;
39324;SDS011;25037;49.488;9.900;2023-06-14T05:24:22;10.02;;;8.90;;
39324;SDS011;25037;49.488;9.900;2023-06-14T05:26:49;9.52;;;8.60;;
39324;SDS011;25037;49.488;9.900;2023-06-14T05:29:15;11.90;;;7.78;;
39324;SDS011;25037;49.488;9.900;2023-06-14T05:31:42;10.70;;;7.43;;
39324;SDS011;25037;49.488;9.900;2023-06-14T05:34:09;8.20;;;7.40;;
39324;SDS011;25037;49.488;9.900;2023-06-14T05:36:36;8.70;;;6.85;;
39324;SDS011;25037;49.488;9.900;2023-06-14T05:39:03;8.77;;;7.93;;
39324;SDS011;25037;49.488;9.900;2023-06-14T05:41:30;8.70;;;7.55;;
39324;SDS011;25037;49.488;9.900;2023-06-14T05:43:57;9.07;;;7.05;;
39324;SDS011;25037;49.488;9.900;2023-06-14T05:46:26;9.02;;;8.07;;
39324;SDS011;25037;49.488;9.900;2023-06-14T05:48:53;11.50;;;7.63;;
39324;SDS011;25037;49.488;9.900;2023-06-14T05:51:20;10.77;;;9.43;;
39324;SDS011;25037;49.488;9.900;2023-06-14T05:53:51;10.57;;;9.57;;
39324;SDS011;25037;49.488;9.900;2023-06-14T05:56:18;11.15;;;10.02;;
39324;SDS011;25037;49.488;9.900;2023-06-14T05:58:45;10.35;;;9.20;;
39324;SDS011;25037;49.488;9.900;2023-06-14T06:01:12;10.98;;;9.48;;
39324;SDS011;25037;49.488;9.900;2023-06-14T06:03:39;13.40;;;12.20;;
39324;SDS011;25037;49.488;9.900;2023-06-14T06:06:06;10.30;;;9.35;;
39324;SDS011;25037;49.488;9.900;2023-06-14T06:08:34;10.60;;;9.60;;
39324;SDS011;25037;49.488;9.900;2023-06-14T06:11:01;16.23;;;14.55;;
39324;SDS011;25037;49.488;9.900;2023-06-14T06:13:28;15.20;;;13.82;;
39324;SDS011;25037;49.488;9.900;2023-06-14T06:15:54;14.15;;;12.82;;
39324;SDS011;25037;49.488;9.900;2023-06-14T06:18:22;11.52;;;10.45;;
39324;SDS011;25037;49.488;9.900;2023-06-14T06:20:49;13.68;;;9.82;;
39324;SDS011;25037;49.488;9.900;2023-06-14T06:23:16;12.77;;;11.70;;
39324;SDS011;25037;49.488;9.900;2023-06-14T06:25:43;10.50;;;9.60;;
39324;SDS011;25037;49.488;9.900;2023-06-14T06:28:09;11.20;;;10.10;;
39324;SDS011;25037;49.488;9.900;2023-06-14T06:30:37;12.43;;;9.45;;
39324;SDS011;25037;49.488;9.900;2023-06-14T06:33:04;9.80;;;8.75;;
39324;SDS011;25037;49.488;9.900;2023-06-14T06:35:31;9.75;;;8.20;;
39324;SDS011;25037;49.488;9.900;2023-06-14T06:37:59;9.50;;;7.63;;
39324;SDS011;25037;49.488;9.900;2023-06-14T06:40:27;8.93;;;6.68;;
39324;SDS011;25037;49.488;9.900;2023-06-14T06:42:54;8.13;;;7.00;;
39324;SDS011;25037;49.488;9.900;2023-06-14T06:45:21;8.30;;;6.35;;
39324;SDS011;25037;49.488;9.900;2023-06-14T06:47:50;8.90;;;6.15;;
39324;SDS011;25037;49.488;9.900;2023-06-14T06:50:18;8.82;;;6.28;;
39324;SDS011;25037;49.488;9.900;2023-06-14T06:52:45;7.57;;;5.32;;
39324;SDS011;25037;49.488;9.900;2023-06-14T06:55:12;9.65;;;6.43;;
39324;SDS011;25037;49.488;9.900;2023-06-14T06:57:40;9.60;;;6.75;;
39324;SDS011;25037;49.488;9.900;2023-06-14T07:00:07;8.80;;;6.18;;
39324;SDS011;25037;49.488;9.900;2023-06-14T07:02:35;6.70;;;5.57;;
39324;SDS011;25037;49.488;9.900;2023-06-14T07:05:02;9.05;;;6.18;;
39324;SDS011;25037;49.488;9.900;2023-06-14T07:07:30;7.30;;;5.55;;
39324;SDS011;25037;49.488;9.900;2023-06-14T07:09:57;8.07;;;6.07;;
39324;SDS011;25037;49.488;9.900;2023-06-14T07:12:24;7.05;;;5.63;;
39324;SDS011;25037;49.488;9.900;2023-06-14T07:14:51;7.68;;;4.85;;
39324;SDS011;25037;49.488;9.900;2023-06-14T07:17:17;9.05;;;5.60;;
39324;SDS011;25037;49.488;9.900;2023-06-14T07:19:44;7.22;;;5.13;;
39324;SDS011;25037;49.488;9.900;2023-06-14T07:22:11;7.60;;;5.85;;
39324;SDS011;25037;49.488;9.900;2023-06-14T07:24:38;8.82;;;5.30;;
39324;SDS011;25037;49.488;9.900;2023-06-14T07:27:07;9.88;;;6.15;;
39324;SDS011;25037;49.488;9.900;2023-06-14T07:29:34;6.82;;;5.32;;
39324;SDS011;25037;49.488;9.900;2023-06-14T07:32:01;8.30;;;5.95;;
39324;SDS011;25037;49.488;9.900;2023-06-14T07:34:27;9.60;;;5.47;;
39324;SDS011;25037;49.488;9.900;2023-06-14T07:36:54;12.20;;;6.00;;
39324;SDS011;25037;49.488;9.900;2023-06-14T07:39:21;7.78;;;5.85;;
39324;SDS011;25037;49.488;9.900;2023-06-14T07:41:48;9.63;;;6.22;;
39324;SDS011;25037;49.488;9.900;2023-06-14T07:44:15;8.80;;;5.45;;
39324;SDS011;25037;49.488;9.900;2023-06-14T07:46:42;9.15;;;5.85;;
39324;SDS011;25037;49.488;9.900;2023-06-14T07:49:09;9.32;;;5.53;;
39324;SDS011;25037;49.488;9.900;2023-06-14T07:51:36;6.47;;;5.35;;
39324;SDS011;25037;49.488;9.900;2023-06-14T07:54:03;9.07;;;5.13;;
39324;SDS011;25037;49.488;9.900;2023-06-14T07:56:30;8.13;;;4.97;;
39324;SDS011;25037;49.488;9.900;2023-06-14T07:58:57;8.25;;;5.22;;
39324;SDS011;25037;49.488;9.900;2023-06-14T08:01:24;8.48;;;5.30;;
39324;SDS011;25037;49.488;9.900;2023-06-14T08:03:52;7.03;;;5.45;;
39324;SDS011;25037;49.488;9.900;2023-06-14T08:06:18;7.63;;;4.80;;
39324;SDS011;25037;49.488;9.900;2023-06-14T08:08:45;6.65;;;4.78;;
39324;SDS011;25037;49.488;9.900;2023-06-14T08:11:12;7.00;;;5.45;;
39324;SDS011;25037;49.488;9.900;2023-06-14T08:13:39;9.23;;;5.10;;
39324;SDS011;25037;49.488;9.900;2023-06-14T08:16:05;7.43;;;4.93;;
39324;SDS011;25037;49.488;9.900;2023-06-14T08:18:32;8.02;;;5.00;;
39324;SDS011;25037;49.488;9.900;2023-06-14T08:20:59;11.10;;;5.45;;
39324;SDS011;25037;49.488;9.900;2023-06-14T08:23:25;7.53;;;4.97;;
39324;SDS011;25037;49.488;9.900;2023-06-14T08:25:53;10.00;;;5.07;;
39324;SDS011;25037;49.488;9.900;2023-06-14T08:28:20;6.78;;;4.55;;
39324;SDS011;25037;49.488;9.900;2023-06-14T08:30:46;12.98;;;5.15;;
39324;SDS011;25037;49.488;9.900;2023-06-14T08:33:13;7.88;;;4.97;;
39324;SDS011;25037;49.488;9.900;2023-06-14T08:35:42;7.38;;;5.28;;
39324;SDS011;25037;49.488;9.900;2023-06-14T08:38:10;8.25;;;4.65;;
39324;SDS011;25037;49.488;9.900;2023-06-14T08:40:38;6.07;;;4.88;;
39324;SDS011;25037;49.488;9.900;2023-06-14T08:43:08;10.75;;;4.95;;
39324;SDS011;25037;49.488;9.900;2023-06-14T08:45:35;5.63;;;4.00;;
39324;SDS011;25037;49.488;9.900;2023-06-14T08:48:02;8.27;;;4.70;;
39324;SDS011;25037;49.488;9.900;2023-06-14T08:50:29;6.13;;;3.97;;
39324;SDS011;25037;49.488;9.900;2023-06-14T08:52:59;5.28;;;4.15;;
39324;SDS011;25037;49.488;9.900;2023-06-14T08:55:29;6.40;;;4.80;;
39324;SDS011;25037;49.488;9.900;2023-06-14T08:58:01;6.07;;;4.43;;
39324;SDS011;25037;49.488;9.900;2023-06-14T09:00:30;8.48;;;4.72;;
39324;SDS011;25037;49.488;9.900;2023-06-14T09:02:58;8.50;;;5.28;;
39324;SDS011;25037;49.488;9.900;2023-06-14T09:05:26;6.47;;;4.90;;
39324;SDS011;25037;49.488;9.900;2023-06-14T09:07:53;8.27;;;4.05;;
39324;SDS011;25037;49.488;9.900;2023-06-14T09:10:21;7.07;;;4.78;;
39324;SDS011;25037;49.488;9.900;2023-06-14T09:12:49;8.68;;;5.30;;
39324;SDS011;25037;49.488;9.900;2023-06-14T09:15:17;6.80;;;5.28;;
39324;SDS011;25037;49.488;9.900;2023-06-14T09:17:44;8.82;;;4.55;;
39324;SDS011;25037;49.488;9.900;2023-06-14T09:20:11;5.32;;;4.00;;
39324;SDS011;25037;49.488;9.900;2023-06-14T09:22:45;6.97;;;4.25;;
39324;SDS011;25037;49.488;9.900;2023-06-14T09:25:12;5.55;;;3.42;;
39324;SDS011;25037;49.488;9.900;2023-06-14T09:28:01;7.15;;;4.88;;
39324;SDS011;25037;49.488;9.900;2023-06-14T09:30:28;8.80;;;4.47;;
39324;SDS011;25037;49.488;9.900;2023-06-14T09:32:55;6.95;;;4.95;;
39324;SDS011;25037;49.488;9.900;2023-06-14T09:35:26;8.05;;;5.18;;
39324;SDS011;25037;49.488;9.900;2023-06-14T09:37:55;7.45;;;4.38;;
39324;SDS011;25037;49.488;9.900;2023-06-14T09:40:22;8.10;;;4.53;;
39324;SDS011;25037;49.488;9.900;2023-06-14T09:42:50;6.97;;;4.25;;
39324;SDS011;25037;49.488;9.900;2023-06-14T09:45:18;7.35;;;4.90;;
39324;SDS011;25037;49.488;9.900;2023-06-14T09:47:50;8.82;;;4.35;;
39324;SDS011;25037;49.488;9.900;2023-06-14T09:50:33;6.32;;;4.68;;
39324;SDS011;25037;49.488;9.900;2023-06-14T09:53:06;6.15;;;3.95;;
39324;SDS011;25037;49.488;9.900;2023-06-14T09:55:34;8.10;;;4.40;;
39324;SDS011;25037;49.488;9.900;2023-06-14T09:58:04;6.88;;;4.68;;
39324;SDS011;25037;49.488;9.900;2023-06-14T10:00:33;7.75;;;4.13;;
39324;SDS011;25037;49.488;9.900;2023-06-14T10:03:11;7.13;;;4.30;;
39324;SDS011;25037;49.488;9.900;2023-06-14T10:05:41;5.97;;;4.75;;
39324;SDS011;25037;49.488;9.900;2023-06-14T10:08:13;6.85;;;4.15;;
39324;SDS011;25037;49.488;9.900;2023-06-14T10:10:42;5.55;;;4.03;;
39324;SDS011;25037;49.488;9.900;2023-06-14T10:13:09;7.63;;;4.55;;
39324;SDS011;25037;49.488;9.900;2023-06-14T10:18:22;7.22;;;4.38;;
39324;SDS011;25037;49.488;9.900;2023-06-14T10:21:02;7.53;;;4.22;;
39324;SDS011;25037;49.488;9.900;2023-06-14T10:23:49;6.88;;;4.30;;
39324;SDS011;25037;49.488;9.900;2023-06-14T10:26:23;5.72;;;4.15;;
39324;SDS011;25037;49.488;9.900;2023-06-14T10:28:56;7.90;;;4.07;;
39324;SDS011;25037;49.488;9.900;2023-06-14T10:31:41;5.82;;;3.78;;
39324;SDS011;25037;49.488;9.900;2023-06-14T10:34:09;6.70;;;4.00;;
39324;SDS011;25037;49.488;9.900;2023-06-14T10:36:37;4.80;;;3.85;;
39324;SDS011;25037;49.488;9.900;2023-06-14T10:39:09;6.95;;;4.18;;
39324;SDS011;25037;49.488;9.900;2023-06-14T10:41:42;6.57;;;4.63;;
39324;SDS011;25037;49.488;9.900;2023-06-14T10:46:46;7.50;;;4.20;;
39324;SDS011;25037;49.488;9.900;2023-06-14T10:49:17;5.55;;;3.38;;
39324;SDS011;25037;49.488;9.900;2023-06-14T10:52:17;5.35;;;4.57;;
39324;SDS011;25037;49.488;9.900;2023-06-14T10:57:41;7.07;;;4.15;;
39324;SDS011;25037;49.488;9.900;2023-06-14T11:00:21;6.65;;;3.90;;
39324;SDS011;25037;49.488;9.900;2023-06-14T11:05:29;8.43;;;4.00;;
39324;SDS011;25037;49.488;9.900;2023-06-14T11:10:58;6.03;;;3.85;;
39324;SDS011;25037;49.488;9.900;2023-06-14T11:13:26;7.57;;;4.43;;
39324;SDS011;25037;49.488;9.900;2023-06-14T11:15:57;6.65;;;4.38;;
39324;SDS011;25037;49.488;9.900;2023-06-14T11:18:24;7.47;;;5.13;;
39324;SDS011;25037;49.488;9.900;2023-06-14T11:20:52;7.40;;;4.55;;
39324;SDS011;25037;49.488;9.900;2023-06-14T11:23:20;6.50;;;4.28;;
39324;SDS011;25037;49.488;9.900;2023-06-14T11:25:51;6.15;;;4.65;;
39324;SDS011;25037;49.488;9.900;2023-06-14T11:28:18;5.82;;;4.15;;
39324;SDS011;25037;49.488;9.900;2023-06-14T11:30:48;5.78;;;4.30;;
39324;SDS011;25037;49.488;9.900;2023-06-14T11:33:18;7.20;;;4.60;;
39324;SDS011;25037;49.488;9.900;2023-06-14T11:35:45;5.88;;;4.07;;
39324;SDS011;25037;49.488;9.900;2023-06-14T11:38:12;6.05;;;3.80;;
39324;SDS011;25037;49.488;9.900;2023-06-14T11:40:39;10.48;;;4.72;;
39324;SDS011;25037;49.488;9.900;2023-06-14T11:43:05;7.50;;;4.70;;
39324;SDS011;25037;49.488;9.900;2023-06-14T11:45:32;9.00;;;4.38;;
39324;SDS011;25037;49.488;9.900;2023-06-14T11:47:59;9.00;;;4.50;;
39324;SDS011;25037;49.488;9.900;2023-06-14T11:50:26;7.18;;;4.18;;
39324;SDS011;25037;49.488;9.900;2023-06-14T11:55:22;6.22;;;4.85;;
39324;SDS011;25037;49.488;9.900;2023-06-14T11:57:50;8.15;;;4.40;;
39324;SDS011;25037;49.488;9.900;2023-06-14T12:00:17;6.20;;;4.20;;
39324;SDS011;25037;49.488;9.900;2023-06-14T12:02:51;7.18;;;4.35;;
39324;SDS011;25037;49.488;9.900;2023-06-14T12:05:22;7.20;;;4.35;;
39324;SDS011;25037;49.488;9.900;2023-06-14T12:07:49;8.90;;;4.18;;
39324;SDS011;25037;49.488;9.900;2023-06-14T12:10:19;6.43;;;4.15;;
39324;SDS011;25037;49.488;9.900;2023-06-14T12:12:46;5.05;;;3.83;;
39324;SDS011;25037;49.488;9.900;2023-06-14T12:15:13;5.90;;;3.90;;
39324;SDS011;25037;49.488;9.900;2023-06-14T12:17:42;5.18;;;4.22;;
39324;SDS011;25037;49.488;9.900;2023-06-14T12:20:10;7.63;;;4.65;;
39324;SDS011;25037;49.488;9.900;2023-06-14T12:22:52;6.35;;;4.38;;
39324;SDS011;25037;49.488;9.900;2023-06-14T12:25:30;9.10;;;4.00;;
39324;SDS011;25037;49.488;9.900;2023-06-14T12:28:09;6.72;;;4.40;;
39324;SDS011;25037;49.488;9.900;2023-06-14T12:30:36;7.43;;;4.25;;
39324;SDS011;25037;49.488;9.900;2023-06-14T12:33:04;7.82;;;5.10;;
39324;SDS011;25037;49.488;9.900;2023-06-14T12:35:32;5.50;;;3.85;;
39324;SDS011;25037;49.488;9.900;2023-06-14T12:37:58;8.43;;;4.45;;
39324;SDS011;25037;49.488;9.900;2023-06-14T12:40:25;6.30;;;4.05;;
39324;SDS011;25037;49.488;9.900;2023-06-14T12:42:52;6.43;;;4.25;;
39324;SDS011;25037;49.488;9.900;2023-06-14T12:45:19;8.20;;;4.20;;
39324;SDS011;25037;49.488;9.900;2023-06-14T12:47:46;5.00;;;4.03;;
39324;SDS011;25037;49.488;9.900;2023-06-14T12:50:13;7.47;;;3.80;;
39324;SDS011;25037;49.488;9.900;2023-06-14T12:52:40;6.85;;;4.55;;
39324;SDS011;25037;49.488;9.900;2023-06-14T12:55:07;5.57;;;4.10;;
39324;SDS011;25037;49.488;9.900;2023-06-14T12:57:34;8.90;;;3.50;;
39324;SDS011;25037;49.488;9.900;2023-06-14T13:00:03;7.07;;;3.75;;
39324;SDS011;25037;49.488;9.900;2023-06-14T13:02:31;5.95;;;3.85;;
39324;SDS011;25037;49.488;9.900;2023-06-14T13:04:57;8.25;;;4.22;;
39324;SDS011;25037;49.488;9.900;2023-06-14T13:07:24;7.65;;;3.85;;
39324;SDS011;25037;49.488;9.900;2023-06-14T13:09:51;8.63;;;3.60;;
39324;SDS011;25037;49.488;9.900;2023-06-14T13:12:18;6.97;;;4.00;;
39324;SDS011;25037;49.488;9.900;2023-06-14T13:14:45;9.18;;;4.07;;
39324;SDS011;25037;49.488;9.900;2023-06-14T13:17:11;7.50;;;4.28;;
39324;SDS011;25037;49.488;9.900;2023-06-14T13:19:38;7.05;;;3.92;;
39324;SDS011;25037;49.488;9.900;2023-06-14T13:22:05;6.10;;;3.50;;
39324;SDS011;25037;49.488;9.900;2023-06-14T13:24:32;7.53;;;4.55;;
39324;SDS011;25037;49.488;9.900;2023-06-14T13:26:59;5.68;;;4.40;;
39324;SDS011;25037;49.488;9.900;2023-06-14T13:29:26;7.22;;;4.05;;
39324;SDS011;25037;49.488;9.900;2023-06-14T13:31:53;7.43;;;4.22;;
39324;SDS011;25037;49.488;9.900;2023-06-14T13:34:21;6.28;;;3.95;;
39324;SDS011;25037;49.488;9.900;2023-06-14T13:36:48;7.55;;;4.05;;
39324;SDS011;25037;49.488;9.900;2023-06-14T13:39:16;6.80;;;3.42;;
39324;SDS011;25037;49.488;9.900;2023-06-14T13:41:42;8.52;;;3.53;;
39324;SDS011;25037;49.488;9.900;2023-06-14T13:44:09;7.13;;;4.45;;
39324;SDS011;25037;49.488;9.900;2023-06-14T13:46:42;6.78;;;3.17;;
39324;SDS011;25037;49.488;9.900;2023-06-14T13:49:09;9.13;;;3.88;;
39324;SDS011;25037;49.488;9.900;2023-06-14T13:51:36;6.75;;;3.85;;
39324;SDS011;25037;49.488;9.900;2023-06-14T13:54:03;5.45;;;3.55;;
39324;SDS011;25037;49.488;9.900;2023-06-14T13:56:30;5.30;;;4.25;;
39324;SDS011;25037;49.488;9.900;2023-06-14T13:58:56;6.53;;;3.60;;
39324;SDS011;25037;49.488;9.900;2023-06-14T14:01:23;6.30;;;4.13;;
39324;SDS011;25037;49.488;9.900;2023-06-14T14:03:51;7.60;;;3.80;;
39324;SDS011;25037;49.488;9.900;2023-06-14T14:06:18;6.43;;;3.67;;
39324;SDS011;25037;49.488;9.900;2023-06-14T14:08:45;8.52;;;4.13;;
39324;SDS011;25037;49.488;9.900;2023-06-14T14:11:12;7.82;;;3.90;;
39324;SDS011;25037;49.488;9.900;2023-06-14T14:13:39;7.20;;;3.80;;
39324;SDS011;25037;49.488;9.900;2023-06-14T14:16:06;4.88;;;3.97;;
39324;SDS011;25037;49.488;9.900;2023-06-14T14:18:33;4.55;;;3.60;;
39324;SDS011;25037;49.488;9.900;2023-06-14T14:21:00;7.43;;;4.10;;
39324;SDS011;25037;49.488;9.900;2023-06-14T14:23:27;7.25;;;4.28;;
39324;SDS011;25037;49.488;9.900;2023-06-14T14:25:54;7.22;;;3.88;;
39324;SDS011;25037;49.488;9.900;2023-06-14T14:28:20;8.52;;;3.97;;
39324;SDS011;25037;49.488;9.900;2023-06-14T14:30:47;7.18;;;3.80;;
39324;SDS011;25037;49.488;9.900;2023-06-14T14:33:14;5.25;;;3.50;;
39324;SDS011;25037;49.488;9.900;2023-06-14T14:35:44;4.85;;;3.72;;
39324;SDS011;25037;49.488;9.900;2023-06-14T14:38:14;5.85;;;3.78;;
39324;SDS011;25037;49.488;9.900;2023-06-14T14:40:42;8.25;;;3.78;;
39324;SDS011;25037;49.488;9.900;2023-06-14T14:43:10;6.95;;;3.30;;
39324;SDS011;25037;49.488;9.900;2023-06-14T14:45:37;6.75;;;3.50;;
39324;SDS011;25037;49.488;9.900;2023-06-14T14:48:04;5.25;;;3.55;;
39324;SDS011;25037;49.488;9.900;2023-06-14T14:50:31;9.52;;;3.80;;
39324;SDS011;25037;49.488;9.900;2023-06-14T14:52:58;5.43;;;3.72;;
39324;SDS011;25037;49.488;9.900;2023-06-14T14:55:25;5.55;;;3.20;;
39324;SDS011;25037;49.488;9.900;2023-06-14T14:57:51;5.00;;;3.70;;
39324;SDS011;25037;49.488;9.900;2023-06-14T15:00:18;7.22;;;3.50;;
39324;SDS011;25037;49.488;9.900;2023-06-14T15:02:45;9.10;;;5.88;;
39324;SDS011;25037;49.488;9.900;2023-06-14T15:05:12;5.38;;;2.85;;
39324;SDS011;25037;49.488;9.900;2023-06-14T15:07:38;8.95;;;3.42;;
39324;SDS011;25037;49.488;9.900;2023-06-14T15:10:06;5.13;;;3.38;;
39324;SDS011;25037;49.488;9.900;2023-06-14T15:12:33;4.68;;;3.15;;
39324;SDS011;25037;49.488;9.900;2023-06-14T15:15:00;6.15;;;4.30;;
39324;SDS011;25037;49.488;9.900;2023-06-14T15:17:28;4.50;;;3.60;;
39324;SDS011;25037;49.488;9.900;2023-06-14T15:19:56;5.95;;;3.03;;
39324;SDS011;25037;49.488;9.900;2023-06-14T15:22:22;4.95;;;3.38;;
39324;SDS011;25037;49.488;9.900;2023-06-14T15:24:49;4.38;;;3.13;;
39324;SDS011;25037;49.488;9.900;2023-06-14T15:27:16;5.18;;;3.40;;
39324;SDS011;25037;49.488;9.900;2023-06-14T15:29:43;6.00;;;3.63;;
39324;SDS011;25037;49.488;9.900;2023-06-14T15:32:10;6.95;;;3.53;;
39324;SDS011;25037;49.488;9.900;2023-06-14T15:34:37;11.13;;;3.70;;
39324;SDS011;25037;49.488;9.900;2023-06-14T15:37:08;4.68;;;3.03;;
39324;SDS011;25037;49.488;9.900;2023-06-14T15:39:35;5.57;;;3.30;;
39324;SDS011;25037;49.488;9.900;2023-06-14T15:42:02;3.83;;;2.85;;
39324;SDS011;25037;49.488;9.900;2023-06-14T15:44:29;5.35;;;3.67;;
39324;SDS011;25037;49.488;9.900;2023-06-14T15:46:56;6.80;;;3.17;;